createdAt,value
2022-10-07T00:11:38.841Z,11.6
2022-10-07T00:26:48.126Z,11.5
2022-10-07T00:41:57.567Z,11.4
2022-10-07T00:57:06.757Z,11.2
2022-10-07T01:12:16.612Z,11.1
2022-10-07T01:27:26.247Z,11
2022-10-07T01:42:35.187Z,10.9
2022-10-07T01:57:44.615Z,10.8
2022-10-07T02:12:56.444Z,10.8
2022-10-07T02:28:06.111Z,10.7
2022-10-07T02:43:15.994Z,10.6
2022-10-07T02:58:25.999Z,10.5
2022-10-07T03:13:35.356Z,10.4
2022-10-07T03:28:44.896Z,10.3
2022-10-07T03:43:54.921Z,10.3
2022-10-07T03:59:04.617Z,10.2
2022-10-07T04:14:13.691Z,10.2
2022-10-07T04:29:23.106Z,10.2
2022-10-07T04:44:32.309Z,10.2
2022-10-07T04:59:42.940Z,10.1
2022-10-07T05:14:52.741Z,10.1
2022-10-07T05:30:02.765Z,10.1
2022-10-07T05:45:12.666Z,9.9
2022-10-07T06:00:22.235Z,9.9
2022-10-07T06:15:31.703Z,9.9
2022-10-07T06:30:41.183Z,10
2022-10-07T06:45:51.722Z,10.2
2022-10-07T07:01:02.506Z,10.4
2022-10-07T07:16:13.419Z,10.6
2022-10-07T07:31:23.956Z,10.8
2022-10-07T07:46:35.131Z,11.2
2022-10-07T08:01:45.307Z,11.6
2022-10-07T08:16:55.668Z,12
2022-10-07T08:32:05.831Z,12.4
2022-10-07T08:47:16.363Z,12.8
2022-10-07T09:02:26.485Z,13.1
2022-10-07T09:17:37.202Z,13.5
2022-10-07T09:32:46.962Z,13.8
2022-10-07T09:47:57.007Z,14.1
2022-10-07T10:03:06.704Z,14.4
2022-10-07T10:18:17.883Z,14.8
2022-10-07T10:33:27.853Z,15.1
2022-10-07T10:48:37.699Z,15.3
2022-10-07T11:03:47.504Z,15.5
2022-10-07T11:18:57.440Z,15.8
2022-10-07T11:34:11.481Z,16.1
2022-10-07T11:49:21.997Z,16.7
2022-10-07T12:04:34.854Z,18.5
2022-10-07T12:19:44.709Z,19.5
2022-10-07T12:34:54.540Z,19.7
2022-10-07T12:50:04.332Z,19.6
2022-10-07T13:05:14.085Z,19.3
2022-10-07T13:20:23.847Z,19.3
2022-10-07T13:35:39.471Z,21.3
2022-10-07T13:50:48.984Z,20.3
2022-10-07T14:05:58.933Z,19.1
2022-10-07T14:21:08.814Z,18.6
2022-10-07T14:36:18.404Z,18.3
2022-10-07T14:51:28.384Z,18
2022-10-07T15:06:37.598Z,17.9
2022-10-07T15:21:48.436Z,17.8
2022-10-07T15:36:58.120Z,17.5
2022-10-07T15:52:07.512Z,17.3
2022-10-07T16:07:17.316Z,17.1
2022-10-07T16:22:27.340Z,16.8
2022-10-07T16:37:36.464Z,16.4
2022-10-07T16:52:45.861Z,16.1
2022-10-07T17:07:55.308Z,15.7
2022-10-07T17:23:04.992Z,15.4
2022-10-07T17:38:14.758Z,15.1
2022-10-07T17:53:23.881Z,14.9
2022-10-07T18:08:33.088Z,14.7
2022-10-07T18:23:42.527Z,14.6
2022-10-07T18:38:51.881Z,14.4
2022-10-07T18:54:01.169Z,14.2
2022-10-07T19:09:10.791Z,14.1
2022-10-07T19:24:20.195Z,13.9
2022-10-07T19:39:29.443Z,13.7
2022-10-07T19:54:38.814Z,13.5
2022-10-07T20:09:48.322Z,13.4
2022-10-07T20:24:57.864Z,13.3
2022-10-07T20:40:07.730Z,13.2
2022-10-07T20:55:16.956Z,13.1
2022-10-07T21:10:26.555Z,13
2022-10-07T21:25:35.765Z,12.9
2022-10-07T21:40:45.155Z,12.7
2022-10-07T21:55:54.388Z,12.6
2022-10-07T22:11:03.970Z,12.6
2022-10-07T22:26:13.092Z,12.6
2022-10-07T22:41:22.738Z,12.5
2022-10-07T22:56:32.781Z,12.4
2022-10-07T23:11:42.278Z,12.1
2022-10-07T23:26:51.036Z,12.1
2022-10-07T23:42:00.165Z,12
2022-10-07T23:57:11.279Z,12.2
